RZO123 LPPT-LPPD
Flight info
| Callsign | RZO123 |
|---|---|
| Flight time | N/A |
| Altitude | 37000 |
| Route | ZIFOG DCT TABAX DCT KOMUT/M078F380 DCT 38N020W DCT BEKUN DCT OMOBI |
| Aircraft | A320/M-SDE3FGHIRWY/LB1 |
Departure
| Time | 2026-05-06 14:08 |
|---|---|
| Airport | Lisbon Humberto Delgado Airport (LPPT) |
Arrival
| Time | N/A |
|---|---|
| Airport | João Paulo II Airport (LPPD) |
| Time | Latitude | Longitude | Altitude | Speed | Heading |
|---|---|---|---|---|---|
| 2026-05-06 13:51 | 38.77028 | -9.13088 | 337 ft | 0 kts | 78° |
| 2026-05-06 14:00 | 38.77024 | -9.13113 | 336 ft | 3 kts | 78° |
| 2026-05-06 14:01 | 38.77019 | -9.13143 | 333 ft | 3 kts | 84° |
| 2026-05-06 14:01 | 38.77020 | -9.13171 | 334 ft | 3 kts | 128° |
| 2026-05-06 14:01 | 38.77026 | -9.13179 | 336 ft | 0 kts | 168° |
| 2026-05-06 14:03 | 38.77026 | -9.13178 | 336 ft | 1 kts | 168° |
| 2026-05-06 14:03 | 38.76957 | -9.13159 | 338 ft | 15 kts | 168° |
| 2026-05-06 14:03 | 38.76863 | -9.13133 | 338 ft | 13 kts | 167° |
| 2026-05-06 14:04 | 38.76778 | -9.13175 | 340 ft | 19 kts | 254° |
| 2026-05-06 14:04 | 38.76745 | -9.13363 | 343 ft | 23 kts | 247° |
| 2026-05-06 14:04 | 38.76650 | -9.13506 | 345 ft | 21 kts | 255° |
| 2026-05-06 14:04 | 38.76620 | -9.13693 | 346 ft | 22 kts | 259° |
| 2026-05-06 14:05 | 38.76589 | -9.13888 | 345 ft | 23 kts | 258° |
| 2026-05-06 14:05 | 38.76554 | -9.14085 | 349 ft | 20 kts | 264° |
| 2026-05-06 14:05 | 38.76581 | -9.14205 | 336 ft | 11 kts | 296° |
| 2026-05-06 14:05 | 38.76586 | -9.14218 | 339 ft | 1 kts | 295° |
| 2026-05-06 14:06 | 38.76598 | -9.14251 | 337 ft | 7 kts | 294° |
| 2026-05-06 14:06 | 38.76623 | -9.14324 | 334 ft | 11 kts | 293° |
| 2026-05-06 14:06 | 38.76684 | -9.14368 | 335 ft | 10 kts | 12° |
| 2026-05-06 14:06 | 38.76697 | -9.14362 | 337 ft | 0 kts | 22° |
| 2026-05-06 14:07 | 38.76837 | -9.14289 | 344 ft | 62 kts | 22° |
| 2026-05-06 14:07 | 38.77561 | -9.13908 | 366 ft | 145 kts | 22° |
| 2026-05-06 14:07 | 38.78592 | -9.13361 | 575 ft | 189 kts | 19° |
| 2026-05-06 14:08 | 38.79853 | -9.12660 | 1114 ft | 204 kts | 20° |
| 2026-05-06 14:08 | 38.81192 | -9.11924 | 1705 ft | 220 kts | 21° |
| 2026-05-06 14:08 | 38.82603 | -9.10915 | 2280 ft | 240 kts | 26° |
| 2026-05-06 14:08 | 38.84062 | -9.09795 | 3194 ft | 245 kts | 26° |
| 2026-05-06 14:09 | 38.85525 | -9.08667 | 4194 ft | 249 kts | 28° |
| 2026-05-06 14:09 | 38.87123 | -9.07746 | 4985 ft | 257 kts | 11° |
| 2026-05-06 14:09 | 38.88912 | -9.07796 | 5808 ft | 263 kts | 344° |
| 2026-05-06 14:09 | 38.90510 | -9.08937 | 6661 ft | 269 kts | 316° |
| 2026-05-06 14:10 | 38.91525 | -9.11002 | 7448 ft | 277 kts | 287° |
| 2026-05-06 14:10 | 38.91629 | -9.13439 | 8258 ft | 282 kts | 262° |
| 2026-05-06 14:10 | 38.91302 | -9.15969 | 9231 ft | 282 kts | 262° |
| 2026-05-06 14:10 | 38.90967 | -9.18454 | 9792 ft | 284 kts | 261° |
| 2026-05-06 14:11 | 38.90628 | -9.20972 | 10246 ft | 291 kts | 261° |
| 2026-05-06 14:11 | 38.90275 | -9.23623 | 10649 ft | 309 kts | 261° |
| 2026-05-06 14:11 | 38.89908 | -9.26374 | 11330 ft | 316 kts | 261° |
| 2026-05-06 14:11 | 38.89539 | -9.29159 | 12133 ft | 318 kts | 261° |
| 2026-05-06 14:12 | 38.89170 | -9.31968 | 12955 ft | 320 kts | 261° |
| 2026-05-06 14:12 | 38.88801 | -9.34790 | 13752 ft | 323 kts | 261° |
| 2026-05-06 14:12 | 38.88549 | -9.36731 | 14181 ft | 326 kts | 260° |
| 2026-05-06 14:12 | 38.88047 | -9.40580 | 15037 ft | 331 kts | 260° |
| 2026-05-06 14:13 | 38.87665 | -9.43497 | 15744 ft | 331 kts | 260° |
| 2026-05-06 14:13 | 38.87404 | -9.45469 | 16194 ft | 333 kts | 260° |
| 2026-05-06 14:13 | 38.87016 | -9.48405 | 16919 ft | 334 kts | 260° |
| 2026-05-06 14:13 | 38.86496 | -9.52320 | 17762 ft | 338 kts | 260° |
| 2026-05-06 14:14 | 38.86228 | -9.54339 | 18191 ft | 341 kts | 260° |
| 2026-05-06 14:14 | 38.85825 | -9.57365 | 18700 ft | 346 kts | 260° |
| 2026-05-06 14:14 | 38.85419 | -9.60406 | 19289 ft | 347 kts | 260° |
| 2026-05-06 14:14 | 38.85011 | -9.63462 | 19901 ft | 348 kts | 260° |
| 2026-05-06 14:15 | 38.84600 | -9.66538 | 20433 ft | 352 kts | 260° |
| 2026-05-06 14:15 | 38.84184 | -9.69641 | 20969 ft | 355 kts | 259° |
| 2026-05-06 14:15 | 38.83763 | -9.72771 | 21477 ft | 358 kts | 259° |
| 2026-05-06 14:15 | 38.83335 | -9.75937 | 22025 ft | 360 kts | 259° |
| 2026-05-06 14:16 | 38.82903 | -9.79099 | 22591 ft | 362 kts | 259° |
| 2026-05-06 14:16 | 38.82465 | -9.82290 | 23069 ft | 365 kts | 259° |
| 2026-05-06 14:16 | 38.82027 | -9.85511 | 23553 ft | 368 kts | 259° |
| 2026-05-06 14:16 | 38.81589 | -9.88759 | 23979 ft | 371 kts | 259° |
| 2026-05-06 14:17 | 38.81141 | -9.92072 | 24424 ft | 373 kts | 259° |
| 2026-05-06 14:17 | 38.80691 | -9.95356 | 24853 ft | 375 kts | 259° |
| 2026-05-06 14:17 | 38.80237 | -9.98650 | 25287 ft | 376 kts | 259° |
| 2026-05-06 14:17 | 38.79781 | -10.01959 | 25711 ft | 378 kts | 260° |